sensor_id;sensor_type;location;lat;lon;timestamp;pressure;altitude;pressure_sealevel;temperature;humidity
84590;BME280;76270;48.816;8.740;2024-03-17T00:01:51;96173.47;;;14.59;55.01
84590;BME280;76270;48.816;8.740;2024-03-17T00:03:52;96170.50;;;14.53;55.24
84590;BME280;76270;48.816;8.740;2024-03-17T00:06:00;96166.91;;;14.63;54.99
84590;BME280;76270;48.816;8.740;2024-03-17T00:08:02;96166.41;;;14.49;55.69
84590;BME280;76270;48.816;8.740;2024-03-17T00:10:05;96160.41;;;14.56;55.32
84590;BME280;76270;48.816;8.740;2024-03-17T00:12:10;96162.16;;;14.37;55.53
84590;BME280;76270;48.816;8.740;2024-03-17T00:14:11;96166.06;;;14.33;55.69
84590;BME280;76270;48.816;8.740;2024-03-17T00:16:12;96162.16;;;14.37;55.59
84590;BME280;76270;48.816;8.740;2024-03-17T00:18:13;96164.03;;;14.46;55.43
84590;BME280;76270;48.816;8.740;2024-03-17T00:20:15;96156.13;;;14.44;55.16
84590;BME280;76270;48.816;8.740;2024-03-17T00:22:20;96162.75;;;14.19;55.93
84590;BME280;76270;48.816;8.740;2024-03-17T00:24:20;96155.38;;;14.33;55.65
84590;BME280;76270;48.816;8.740;2024-03-17T00:26:21;96159.13;;;14.30;55.53
84590;BME280;76270;48.816;8.740;2024-03-17T00:28:25;96159.03;;;14.11;55.83
84590;BME280;76270;48.816;8.740;2024-03-17T00:30:26;96150.78;;;14.14;55.80
84590;BME280;76270;48.816;8.740;2024-03-17T00:32:26;96160.19;;;14.18;55.51
84590;BME280;76270;48.816;8.740;2024-03-17T00:34:27;96149.00;;;13.94;56.17
84590;BME280;76270;48.816;8.740;2024-03-17T00:36:29;96150.03;;;14.02;55.90
84590;BME280;76270;48.816;8.740;2024-03-17T00:38:29;96154.31;;;13.94;56.08
84590;BME280;76270;48.816;8.740;2024-03-17T00:40:30;96155.09;;;13.85;56.31
84590;BME280;76270;48.816;8.740;2024-03-17T00:42:30;96141.97;;;13.93;55.96
84590;BME280;76270;48.816;8.740;2024-03-17T00:44:31;96144.38;;;13.96;56.21
84590;BME280;76270;48.816;8.740;2024-03-17T00:46:31;96139.88;;;13.96;55.90
84590;BME280;76270;48.816;8.740;2024-03-17T00:48:32;96139.88;;;13.96;55.85
84590;BME280;76270;48.816;8.740;2024-03-17T00:50:35;96147.53;;;14.10;55.52
84590;BME280;76270;48.816;8.740;2024-03-17T00:52:36;96141.00;;;13.94;55.75
84590;BME280;76270;48.816;8.740;2024-03-17T00:54:36;96142.19;;;13.80;56.14
84590;BME280;76270;48.816;8.740;2024-03-17T00:56:37;96134.91;;;13.82;56.25
84590;BME280;76270;48.816;8.740;2024-03-17T00:58:38;96133.28;;;13.70;56.21
84590;BME280;76270;48.816;8.740;2024-03-17T01:00:39;96135.94;;;13.70;56.44
84590;BME280;76270;48.816;8.740;2024-03-17T01:02:39;96138.59;;;13.70;56.13
84590;BME280;76270;48.816;8.740;2024-03-17T01:04:40;96135.94;;;13.70;56.17
84590;BME280;76270;48.816;8.740;2024-03-17T01:06:40;96136.63;;;13.72;56.00
84590;BME280;76270;48.816;8.740;2024-03-17T01:08:41;96137.72;;;13.49;56.82
84590;BME280;76270;48.816;8.740;2024-03-17T01:10:42;96131.09;;;13.54;56.43
84590;BME280;76270;48.816;8.740;2024-03-17T01:12:43;96138.22;;;13.54;56.65
84590;BME280;76270;48.816;8.740;2024-03-17T01:14:45;96125.28;;;13.70;56.07
84590;BME280;76270;48.816;8.740;2024-03-17T01:16:46;96130.03;;;13.46;56.51
84590;BME280;76270;48.816;8.740;2024-03-17T01:18:46;96126.91;;;13.61;56.15
84590;BME280;76270;48.816;8.740;2024-03-17T01:20:47;96129.88;;;13.47;56.70
84590;BME280;76270;48.816;8.740;2024-03-17T01:22:48;96133.66;;;13.45;56.57
84590;BME280;76270;48.816;8.740;2024-03-17T01:24:48;96130.34;;;13.52;56.50
84590;BME280;76270;48.816;8.740;2024-03-17T01:26:49;96125.53;;;13.67;55.57
84590;BME280;76270;48.816;8.740;2024-03-17T01:28:49;96118.25;;;13.69;55.78
84590;BME280;76270;48.816;8.740;2024-03-17T01:30:50;96125.09;;;13.62;55.90
84590;BME280;76270;48.816;8.740;2024-03-17T01:32:51;96120.44;;;13.54;56.04
84590;BME280;76270;48.816;8.740;2024-03-17T01:34:51;96111.97;;;13.49;56.15
84590;BME280;76270;48.816;8.740;2024-03-17T01:36:52;96112.88;;;13.39;56.42
84590;BME280;76270;48.816;8.740;2024-03-17T01:38:52;96105.66;;;13.30;56.69
84590;BME280;76270;48.816;8.740;2024-03-17T01:40:53;96101.47;;;13.48;56.15
84590;BME280;76270;48.816;8.740;2024-03-17T01:42:53;96106.44;;;13.41;55.89
84590;BME280;76270;48.816;8.740;2024-03-17T01:44:54;96108.34;;;13.50;55.96
84590;BME280;76270;48.816;8.740;2024-03-17T01:46:56;96105.81;;;13.28;56.66
84590;BME280;76270;48.816;8.740;2024-03-17T01:48:59;96101.88;;;13.32;56.70
84590;BME280;76270;48.816;8.740;2024-03-17T01:51:01;96088.53;;;13.23;56.85
84590;BME280;76270;48.816;8.740;2024-03-17T01:53:04;96092.41;;;13.19;56.80
84590;BME280;76270;48.816;8.740;2024-03-17T01:55:06;96090.41;;;13.32;56.46
84590;BME280;76270;48.816;8.740;2024-03-17T01:57:07;96084.81;;;13.35;56.14
84590;BME280;76270;48.816;8.740;2024-03-17T01:59:08;96081.63;;;13.41;56.06
84590;BME280;76270;48.816;8.740;2024-03-17T02:01:10;96083.41;;;13.31;56.42
84590;BME280;76270;48.816;8.740;2024-03-17T02:03:11;96080.09;;;13.38;55.95
84590;BME280;76270;48.816;8.740;2024-03-17T02:05:13;96079.97;;;13.40;55.90
84590;BME280;76270;48.816;8.740;2024-03-17T02:07:13;96075.47;;;13.20;56.45
84590;BME280;76270;48.816;8.740;2024-03-17T02:09:15;96078.97;;;13.20;56.42
84590;BME280;76270;48.816;8.740;2024-03-17T02:11:30;96074.75;;;13.18;56.65
84590;BME280;76270;48.816;8.740;2024-03-17T02:13:31;96079.63;;;13.12;56.74
84590;BME280;76270;48.816;8.740;2024-03-17T02:15:32;96069.06;;;13.22;56.30
84590;BME280;76270;48.816;8.740;2024-03-17T02:17:33;96068.84;;;13.14;56.42
84590;BME280;76270;48.816;8.740;2024-03-17T02:19:34;96067.75;;;13.17;56.37
84590;BME280;76270;48.816;8.740;2024-03-17T02:21:35;96061.69;;;13.14;55.99
84590;BME280;76270;48.816;8.740;2024-03-17T02:23:36;96059.72;;;13.28;55.83
84590;BME280;76270;48.816;8.740;2024-03-17T02:25:39;96056.91;;;13.08;56.44
84590;BME280;76270;48.816;8.740;2024-03-17T02:27:43;96055.69;;;13.01;56.91
84590;BME280;76270;48.816;8.740;2024-03-17T02:29:44;96059.66;;;13.07;56.69
84590;BME280;76270;48.816;8.740;2024-03-17T02:31:45;96055.81;;;13.11;56.64
84590;BME280;76270;48.816;8.740;2024-03-17T02:33:46;96050.94;;;13.16;55.94
84590;BME280;76270;48.816;8.740;2024-03-17T02:35:47;96056.97;;;13.18;56.03
84590;BME280;76270;48.816;8.740;2024-03-17T02:37:47;96045.97;;;13.11;55.82
84590;BME280;76270;48.816;8.740;2024-03-17T02:39:48;96046.50;;;13.05;56.25
84590;BME280;76270;48.816;8.740;2024-03-17T02:41:49;96043.47;;;13.10;56.15
84590;BME280;76270;48.816;8.740;2024-03-17T02:43:49;96043.03;;;12.94;56.39
84590;BME280;76270;48.816;8.740;2024-03-17T02:45:50;96044.09;;;13.02;56.21
84590;BME280;76270;48.816;8.740;2024-03-17T02:47:51;96040.84;;;12.99;56.36
84590;BME280;76270;48.816;8.740;2024-03-17T02:49:52;96048.31;;;13.05;56.21
84590;BME280;76270;48.816;8.740;2024-03-17T02:51:53;96049.78;;;12.66;57.02
84590;BME280;76270;48.816;8.740;2024-03-17T02:53:54;96045.66;;;13.05;56.13
84590;BME280;76270;48.816;8.740;2024-03-17T02:55:58;96050.50;;;13.00;55.90
84590;BME280;76270;48.816;8.740;2024-03-17T02:57:58;96052.56;;;12.96;56.22
84590;BME280;76270;48.816;8.740;2024-03-17T02:59:59;96048.63;;;12.91;56.23
84590;BME280;76270;48.816;8.740;2024-03-17T03:02:00;96051.13;;;12.92;56.25
84590;BME280;76270;48.816;8.740;2024-03-17T03:04:00;96036.41;;;12.88;56.35
84590;BME280;76270;48.816;8.740;2024-03-17T03:06:01;96040.88;;;12.88;56.28
84590;BME280;76270;48.816;8.740;2024-03-17T03:08:04;96045.41;;;12.76;56.58
84590;BME280;76270;48.816;8.740;2024-03-17T03:10:05;96047.56;;;12.82;56.59
84590;BME280;76270;48.816;8.740;2024-03-17T03:12:06;96039.19;;;12.87;56.46
84590;BME280;76270;48.816;8.740;2024-03-17T03:14:07;96039.91;;;12.89;56.05
84590;BME280;76270;48.816;8.740;2024-03-17T03:16:13;96032.56;;;13.13;55.73
84590;BME280;76270;48.816;8.740;2024-03-17T03:18:15;96031.28;;;13.28;54.87
84590;BME280;76270;48.816;8.740;2024-03-17T03:20:15;96029.78;;;13.03;55.50
84590;BME280;76270;48.816;8.740;2024-03-17T03:22:16;96027.38;;;13.00;55.97
84590;BME280;76270;48.816;8.740;2024-03-17T03:24:16;96035.84;;;13.05;55.30
84590;BME280;76270;48.816;8.740;2024-03-17T03:26:17;96044.91;;;12.39;57.40
84590;BME280;76270;48.816;8.740;2024-03-17T03:28:18;96042.50;;;12.79;56.35
84590;BME280;76270;48.816;8.740;2024-03-17T03:30:19;96040.19;;;12.75;56.16
84590;BME280;76270;48.816;8.740;2024-03-17T03:32:21;96030.88;;;12.80;56.28
84590;BME280;76270;48.816;8.740;2024-03-17T03:34:22;96036.19;;;12.80;56.10
84590;BME280;76270;48.816;8.740;2024-03-17T03:36:24;96036.78;;;12.84;56.12
84590;BME280;76270;48.816;8.740;2024-03-17T03:38:25;96046.41;;;12.96;55.52
84590;BME280;76270;48.816;8.740;2024-03-17T03:40:26;96043.41;;;12.89;55.53
84590;BME280;76270;48.816;8.740;2024-03-17T03:42:27;96043.50;;;12.67;56.25
84590;BME280;76270;48.816;8.740;2024-03-17T03:44:28;96039.16;;;12.66;56.67
84590;BME280;76270;48.816;8.740;2024-03-17T03:46:28;96035.91;;;12.51;56.84
84590;BME280;76270;48.816;8.740;2024-03-17T03:48:29;96028.75;;;12.63;56.82
84590;BME280;76270;48.816;8.740;2024-03-17T03:50:30;96031.31;;;12.65;56.38
84590;BME280;76270;48.816;8.740;2024-03-17T03:52:31;96032.91;;;12.56;56.36
84590;BME280;76270;48.816;8.740;2024-03-17T03:54:33;96024.78;;;12.57;56.35
84590;BME280;76270;48.816;8.740;2024-03-17T03:56:33;96031.47;;;12.52;56.25
84590;BME280;76270;48.816;8.740;2024-03-17T03:58:38;96034.63;;;12.78;55.77
84590;BME280;76270;48.816;8.740;2024-03-17T04:00:41;96028.09;;;12.50;56.74
84590;BME280;76270;48.816;8.740;2024-03-17T04:02:42;96025.88;;;12.55;56.30
84590;BME280;76270;48.816;8.740;2024-03-17T04:04:42;96026.88;;;12.43;56.76
84590;BME280;76270;48.816;8.740;2024-03-17T04:06:43;96034.28;;;12.39;56.80
84590;BME280;76270;48.816;8.740;2024-03-17T04:08:44;96035.50;;;12.35;57.16
84590;BME280;76270;48.816;8.740;2024-03-17T04:10:48;96031.47;;;12.52;56.30
84590;BME280;76270;48.816;8.740;2024-03-17T04:12:48;96037.06;;;12.38;56.44
84590;BME280;76270;48.816;8.740;2024-03-17T04:14:49;96026.94;;;12.64;55.96
84590;BME280;76270;48.816;8.740;2024-03-17T04:16:53;96027.03;;;12.41;56.48
84590;BME280;76270;48.816;8.740;2024-03-17T04:18:54;96020.47;;;12.45;56.31
84590;BME280;76270;48.816;8.740;2024-03-17T04:20:55;96023.72;;;12.49;56.26
84590;BME280;76270;48.816;8.740;2024-03-17T04:22:56;96019.56;;;12.35;56.63
84590;BME280;76270;48.816;8.740;2024-03-17T04:24:58;96029.94;;;12.38;56.80
84590;BME280;76270;48.816;8.740;2024-03-17T04:26:59;96021.81;;;12.40;56.49
84590;BME280;76270;48.816;8.740;2024-03-17T04:29:00;96022.84;;;12.28;56.81
84590;BME280;76270;48.816;8.740;2024-03-17T04:31:06;96023.53;;;12.41;56.35
84590;BME280;76270;48.816;8.740;2024-03-17T04:33:07;96019.66;;;12.45;56.41
84590;BME280;76270;48.816;8.740;2024-03-17T04:35:08;96023.81;;;12.27;56.80
84590;BME280;76270;48.816;8.740;2024-03-17T04:37:09;96025.34;;;12.29;56.57
84590;BME280;76270;48.816;8.740;2024-03-17T04:39:12;96029.13;;;12.16;57.23
84590;BME280;76270;48.816;8.740;2024-03-17T04:41:16;96023.94;;;12.25;56.64
84590;BME280;76270;48.816;8.740;2024-03-17T04:43:17;96027.91;;;12.31;56.37
84590;BME280;76270;48.816;8.740;2024-03-17T04:45:20;96036.50;;;12.12;56.99
84590;BME280;76270;48.816;8.740;2024-03-17T04:47:21;96035.66;;;12.12;56.76
84590;BME280;76270;48.816;8.740;2024-03-17T04:49:21;96029.16;;;12.05;57.11
84590;BME280;76270;48.816;8.740;2024-03-17T04:51:22;96033.25;;;11.97;57.38
84590;BME280;76270;48.816;8.740;2024-03-17T04:53:22;96029.16;;;12.05;57.04
84590;BME280;76270;48.816;8.740;2024-03-17T04:55:23;96028.31;;;12.04;56.92
84590;BME280;76270;48.816;8.740;2024-03-17T04:57:24;96031.69;;;12.06;56.81
84590;BME280;76270;48.816;8.740;2024-03-17T04:59:25;96030.59;;;11.97;57.11
84590;BME280;76270;48.816;8.740;2024-03-17T05:01:26;96035.66;;;12.00;56.83
84590;BME280;76270;48.816;8.740;2024-03-17T05:03:26;96025.19;;;11.88;57.25
84590;BME280;76270;48.816;8.740;2024-03-17T05:05:27;96027.56;;;11.91;57.01
84590;BME280;76270;48.816;8.740;2024-03-17T05:07:28;96031.69;;;11.95;57.09
84590;BME280;76270;48.816;8.740;2024-03-17T05:09:29;96027.00;;;11.98;56.77
84590;BME280;76270;48.816;8.740;2024-03-17T05:11:30;96039.19;;;12.01;56.76
84590;BME280;76270;48.816;8.740;2024-03-17T05:13:33;96038.22;;;12.02;56.63
84590;BME280;76270;48.816;8.740;2024-03-17T05:15:36;96031.84;;;11.93;56.90
84590;BME280;76270;48.816;8.740;2024-03-17T05:17:37;96030.75;;;11.96;56.45
84590;BME280;76270;48.816;8.740;2024-03-17T05:19:37;96032.88;;;11.91;57.04
84590;BME280;76270;48.816;8.740;2024-03-17T05:21:38;96032.56;;;11.84;56.88
84590;BME280;76270;48.816;8.740;2024-03-17T05:23:41;96034.97;;;11.98;56.62
84590;BME280;76270;48.816;8.740;2024-03-17T05:25:51;96028.19;;;12.17;56.01
84590;BME280;76270;48.816;8.740;2024-03-17T05:27:54;96026.38;;;12.06;56.38
84590;BME280;76270;48.816;8.740;2024-03-17T05:29:55;96023.00;;;11.93;56.64
84590;BME280;76270;48.816;8.740;2024-03-17T05:31:56;96023.03;;;11.82;57.02
84590;BME280;76270;48.816;8.740;2024-03-17T05:33:57;96018.53;;;11.82;56.73
84590;BME280;76270;48.816;8.740;2024-03-17T05:35:59;96017.09;;;11.89;56.58
84590;BME280;76270;48.816;8.740;2024-03-17T05:38:00;96020.97;;;11.74;56.66
84590;BME280;76270;48.816;8.740;2024-03-17T05:40:00;96026.88;;;11.78;56.91
84590;BME280;76270;48.816;8.740;2024-03-17T05:42:01;96032.56;;;11.84;56.92
84590;BME280;76270;48.816;8.740;2024-03-17T05:44:05;96022.03;;;11.94;56.37
84590;BME280;76270;48.816;8.740;2024-03-17T05:46:15;96029.28;;;11.81;56.58
84590;BME280;76270;48.816;8.740;2024-03-17T05:48:16;96024.94;;;11.80;56.74
84590;BME280;76270;48.816;8.740;2024-03-17T05:50:16;96019.75;;;11.78;56.56
84590;BME280;76270;48.816;8.740;2024-03-17T05:52:17;96016.16;;;11.79;56.21
84590;BME280;76270;48.816;8.740;2024-03-17T05:54:17;96019.03;;;11.76;56.73
84590;BME280;76270;48.816;8.740;2024-03-17T05:56:18;96028.50;;;11.57;57.06
84590;BME280;76270;48.816;8.740;2024-03-17T05:58:19;96021.78;;;11.64;56.67
84590;BME280;76270;48.816;8.740;2024-03-17T06:00:19;96015.28;;;11.90;55.98
84590;BME280;76270;48.816;8.740;2024-03-17T06:02:21;96026.50;;;11.82;56.25
84590;BME280;76270;48.816;8.740;2024-03-17T06:04:21;96027.72;;;11.78;56.26
84590;BME280;76270;48.816;8.740;2024-03-17T06:06:22;96026.22;;;11.63;56.63
84590;BME280;76270;48.816;8.740;2024-03-17T06:08:23;96029.91;;;11.73;56.38
84590;BME280;76270;48.816;8.740;2024-03-17T06:10:24;96023.03;;;11.82;55.95
84590;BME280;76270;48.816;8.740;2024-03-17T06:12:26;96029.44;;;11.79;56.08
84590;BME280;76270;48.816;8.740;2024-03-17T06:14:26;96031.06;;;11.58;56.53
84590;BME280;76270;48.816;8.740;2024-03-17T06:16:27;96029.03;;;11.62;56.49
84590;BME280;76270;48.816;8.740;2024-03-17T06:18:28;96029.38;;;11.57;56.78
84590;BME280;76270;48.816;8.740;2024-03-17T06:20:28;96033.34;;;11.52;56.72
84590;BME280;76270;48.816;8.740;2024-03-17T06:22:29;96026.13;;;11.65;56.55
84590;BME280;76270;48.816;8.740;2024-03-17T06:24:29;96019.28;;;11.73;56.03
84590;BME280;76270;48.816;8.740;2024-03-17T06:26:30;96016.00;;;11.81;56.00
84590;BME280;76270;48.816;8.740;2024-03-17T06:28:33;96015.53;;;11.76;55.84
84590;BME280;76270;48.816;8.740;2024-03-17T06:30:35;96022.19;;;11.70;56.11
84590;BME280;76270;48.816;8.740;2024-03-17T06:32:37;96022.19;;;11.81;55.91
84590;BME280;76270;48.816;8.740;2024-03-17T06:34:37;96015.75;;;11.95;55.26
84590;BME280;76270;48.816;8.740;2024-03-17T06:36:38;96022.13;;;12.15;54.80
84590;BME280;76270;48.816;8.740;2024-03-17T06:38:38;96023.41;;;12.31;54.49
84590;BME280;76270;48.816;8.740;2024-03-17T06:40:39;96014.09;;;12.48;53.86
84590;BME280;76270;48.816;8.740;2024-03-17T06:42:40;96020.78;;;12.20;54.45
84590;BME280;76270;48.816;8.740;2024-03-17T06:44:42;96017.81;;;12.14;54.51
84590;BME280;76270;48.816;8.740;2024-03-17T06:46:45;96026.25;;;12.08;54.76
84590;BME280;76270;48.816;8.740;2024-03-17T06:48:49;96019.97;;;11.97;54.81
84590;BME280;76270;48.816;8.740;2024-03-17T06:50:52;96020.44;;;12.02;55.10
84590;BME280;76270;48.816;8.740;2024-03-17T06:52:54;96018.41;;;12.06;54.97
84590;BME280;76270;48.816;8.740;2024-03-17T06:54:55;96014.66;;;11.97;55.23
84590;BME280;76270;48.816;8.740;2024-03-17T06:56:56;96019.88;;;11.88;55.26
84590;BME280;76270;48.816;8.740;2024-03-17T06:58:57;96014.22;;;11.81;55.75
84590;BME280;76270;48.816;8.740;2024-03-17T07:00:59;96019.28;;;11.84;55.66
84590;BME280;76270;48.816;8.740;2024-03-17T07:03:00;96028.44;;;11.69;56.11
84590;BME280;76270;48.816;8.740;2024-03-17T07:05:00;96026.47;;;11.60;60.54
84590;BME280;76270;48.816;8.740;2024-03-17T07:07:02;96022.53;;;11.77;55.61
84590;BME280;76270;48.816;8.740;2024-03-17T07:09:03;96032.06;;;11.90;55.64
84590;BME280;76270;48.816;8.740;2024-03-17T07:11:05;96026.38;;;11.51;63.13
84590;BME280;76270;48.816;8.740;2024-03-17T07:13:07;96024.44;;;11.86;57.88
84590;BME280;76270;48.816;8.740;2024-03-17T07:15:08;96021.91;;;11.95;58.89
84590;BME280;76270;48.816;8.740;2024-03-17T07:17:11;96022.88;;;11.83;58.44
84590;BME280;76270;48.816;8.740;2024-03-17T07:19:12;96027.09;;;11.97;55.98
84590;BME280;76270;48.816;8.740;2024-03-17T07:21:13;96019.50;;;11.92;55.58
84590;BME280;76270;48.816;8.740;2024-03-17T07:23:14;96024.06;;;12.13;58.34
84590;BME280;76270;48.816;8.740;2024-03-17T07:25:16;96021.69;;;11.98;62.11
84590;BME280;76270;48.816;8.740;2024-03-17T07:27:16;96022.31;;;12.45;55.75
84590;BME280;76270;48.816;8.740;2024-03-17T07:29:17;96019.03;;;12.52;62.56
84590;BME280;76270;48.816;8.740;2024-03-17T07:31:19;96021.00;;;12.39;56.50
84590;BME280;76270;48.816;8.740;2024-03-17T07:33:20;96021.16;;;12.27;63.35
84590;BME280;76270;48.816;8.740;2024-03-17T07:35:21;96013.34;;;12.46;64.21
84590;BME280;76270;48.816;8.740;2024-03-17T07:37:21;96017.13;;;12.75;57.94
84590;BME280;76270;48.816;8.740;2024-03-17T07:39:22;96011.56;;;12.99;63.58
84590;BME280;76270;48.816;8.740;2024-03-17T07:41:24;96007.66;;;12.82;57.22
84590;BME280;76270;48.816;8.740;2024-03-17T07:43:25;96008.03;;;12.46;55.77
84590;BME280;76270;48.816;8.740;2024-03-17T07:45:26;96011.78;;;12.00;57.26
84590;BME280;76270;48.816;8.740;2024-03-17T07:47:27;96009.81;;;12.25;55.98
84590;BME280;76270;48.816;8.740;2024-03-17T07:49:35;96008.06;;;12.35;64.62
84590;BME280;76270;48.816;8.740;2024-03-17T07:51:36;96015.66;;;11.96;57.32
84590;BME280;76270;48.816;8.740;2024-03-17T07:53:37;96014.16;;;12.15;59.19
84590;BME280;76270;48.816;8.740;2024-03-17T07:55:38;96008.75;;;11.94;57.89
84590;BME280;76270;48.816;8.740;2024-03-17T07:57:39;96004.66;;;12.44;56.98
84590;BME280;76270;48.816;8.740;2024-03-17T07:59:40;96006.44;;;12.54;60.56
84590;BME280;76270;48.816;8.740;2024-03-17T08:01:41;96013.63;;;12.32;56.80
84590;BME280;76270;48.816;8.740;2024-03-17T08:03:44;96009.59;;;12.06;57.77
84590;BME280;76270;48.816;8.740;2024-03-17T08:05:49;96016.84;;;11.92;58.12
84590;BME280;76270;48.816;8.740;2024-03-17T08:07:50;96026.59;;;12.03;58.03
84590;BME280;76270;48.816;8.740;2024-03-17T08:09:50;96023.53;;;12.73;57.12
84590;BME280;76270;48.816;8.740;2024-03-17T08:11:52;96021.53;;;12.11;57.71
84590;BME280;76270;48.816;8.740;2024-03-17T08:13:52;96021.81;;;12.51;56.82
84590;BME280;76270;48.816;8.740;2024-03-17T08:15:59;96015.59;;;12.62;59.12
84590;BME280;76270;48.816;8.740;2024-03-17T08:18:00;96023.59;;;12.19;58.20
84590;BME280;76270;48.816;8.740;2024-03-17T08:20:00;96020.97;;;12.50;57.49
84590;BME280;76270;48.816;8.740;2024-03-17T08:22:01;96014.59;;;12.74;60.51
84590;BME280;76270;48.816;8.740;2024-03-17T08:24:01;96016.47;;;12.62;57.39
84590;BME280;76270;48.816;8.740;2024-03-17T08:26:03;96025.28;;;12.51;57.07
84590;BME280;76270;48.816;8.740;2024-03-17T08:28:04;96021.56;;;12.54;57.16
84590;BME280;76270;48.816;8.740;2024-03-17T08:30:05;96024.41;;;12.30;57.94
84590;BME280;76270;48.816;8.740;2024-03-17T08:32:06;96022.31;;;12.77;59.19
84590;BME280;76270;48.816;8.740;2024-03-17T08:34:08;96024.22;;;12.43;57.81
84590;BME280;76270;48.816;8.740;2024-03-17T08:36:09;96016.81;;;12.15;58.91
84590;BME280;76270;48.816;8.740;2024-03-17T08:38:09;96016.38;;;12.52;57.77
84590;BME280;76270;48.816;8.740;2024-03-17T08:40:11;96020.41;;;12.68;58.30
84590;BME280;76270;48.816;8.740;2024-03-17T08:42:12;96003.22;;;13.24;57.02
84590;BME280;76270;48.816;8.740;2024-03-17T08:44:12;96009.75;;;12.47;58.59
84590;BME280;76270;48.816;8.740;2024-03-17T08:46:13;96009.09;;;12.54;61.26
84590;BME280;76270;48.816;8.740;2024-03-17T08:48:14;96006.97;;;13.01;56.81
84590;BME280;76270;48.816;8.740;2024-03-17T08:50:15;96003.22;;;13.24;61.59
84590;BME280;76270;48.816;8.740;2024-03-17T08:52:15;96002.19;;;12.63;58.24
84590;BME280;76270;48.816;8.740;2024-03-17T08:54:16;96002.50;;;13.01;59.27
84590;BME280;76270;48.816;8.740;2024-03-17T08:56:16;96003.06;;;12.84;57.28
84590;BME280;76270;48.816;8.740;2024-03-17T08:58:17;95997.56;;;13.18;61.46
84590;BME280;76270;48.816;8.740;2024-03-17T09:00:18;96001.03;;;13.08;57.05
84590;BME280;76270;48.816;8.740;2024-03-17T09:02:18;96002.22;;;12.84;58.00
84590;BME280;76270;48.816;8.740;2024-03-17T09:04:21;96000.13;;;13.19;57.28
84590;BME280;76270;48.816;8.740;2024-03-17T09:06:23;96001.16;;;13.28;59.91
84590;BME280;76270;48.816;8.740;2024-03-17T09:08:25;96001.94;;;13.19;57.35
84590;BME280;76270;48.816;8.740;2024-03-17T09:10:28;95998.97;;;13.01;58.02
84590;BME280;76270;48.816;8.740;2024-03-17T09:12:29;96001.88;;;13.09;57.50
84590;BME280;76270;48.816;8.740;2024-03-17T09:14:29;96000.00;;;12.89;58.49
84590;BME280;76270;48.816;8.740;2024-03-17T09:16:30;95998.84;;;13.44;57.63
84590;BME280;76270;48.816;8.740;2024-03-17T09:18:32;95996.81;;;13.27;57.58
84590;BME280;76270;48.816;8.740;2024-03-17T09:20:33;96002.53;;;13.22;57.91
84590;BME280;76270;48.816;8.740;2024-03-17T09:22:33;96000.03;;;13.51;58.14
84590;BME280;76270;48.816;8.740;2024-03-17T09:24:34;95993.38;;;13.36;58.02
84590;BME280;76270;48.816;8.740;2024-03-17T09:26:35;95991.13;;;13.41;57.69
84590;BME280;76270;48.816;8.740;2024-03-17T09:28:36;95995.16;;;13.96;57.41
84590;BME280;76270;48.816;8.740;2024-03-17T09:30:36;96006.66;;;13.36;58.19
84590;BME280;76270;48.816;8.740;2024-03-17T09:32:37;96008.66;;;13.43;60.74
84590;BME280;76270;48.816;8.740;2024-03-17T09:34:38;96010.06;;;13.68;57.43
84590;BME280;76270;48.816;8.740;2024-03-17T09:36:38;96001.56;;;13.74;57.06
84590;BME280;76270;48.816;8.740;2024-03-17T09:38:39;95997.25;;;13.83;61.69
84590;BME280;76270;48.816;8.740;2024-03-17T09:40:46;95997.56;;;14.39;56.83
84590;BME280;76270;48.816;8.740;2024-03-17T09:42:47;96005.38;;;14.31;56.17
84590;BME280;76270;48.816;8.740;2024-03-17T09:44:53;96003.69;;;13.80;57.26
84590;BME280;76270;48.816;8.740;2024-03-17T09:46:55;95999.41;;;13.68;57.49
84590;BME280;76270;48.816;8.740;2024-03-17T09:48:55;95991.94;;;13.92;56.66
84590;BME280;76270;48.816;8.740;2024-03-17T09:51:01;95992.19;;;13.80;57.61
84590;BME280;76270;48.816;8.740;2024-03-17T09:53:03;95997.19;;;13.73;56.95
84590;BME280;76270;48.816;8.740;2024-03-17T09:55:09;95987.69;;;14.29;56.27
84590;BME280;76270;48.816;8.740;2024-03-17T09:57:16;95986.94;;;14.08;57.01
84590;BME280;76270;48.816;8.740;2024-03-17T09:59:17;95983.06;;;13.82;57.13
84590;BME280;76270;48.816;8.740;2024-03-17T10:01:18;95992.00;;;13.72;58.29
84590;BME280;76270;48.816;8.740;2024-03-17T10:06:04;95995.47;;;14.61;56.23
84590;BME280;76270;48.816;8.740;2024-03-17T10:08:05;95994.69;;;13.81;58.05
84590;BME280;76270;48.816;8.740;2024-03-17T10:10:13;95999.00;;;14.12;57.13
84590;BME280;76270;48.816;8.740;2024-03-17T10:12:29;95996.97;;;14.35;56.80
84590;BME280;76270;48.816;8.740;2024-03-17T10:14:29;95998.59;;;14.76;55.98
84590;BME280;76270;48.816;8.740;2024-03-17T10:16:32;95997.16;;;14.53;57.34
84590;BME280;76270;48.816;8.740;2024-03-17T10:18:34;96000.69;;;14.72;55.20
84590;BME280;76270;48.816;8.740;2024-03-17T10:20:35;96003.22;;;14.83;54.97
84590;BME280;76270;48.816;8.740;2024-03-17T10:22:36;95999.81;;;13.94;57.31
84590;BME280;76270;48.816;8.740;2024-03-17T10:24:37;95999.00;;;14.12;57.05
84590;BME280;76270;48.816;8.740;2024-03-17T10:26:44;95993.34;;;14.36;56.74
84590;BME280;76270;48.816;8.740;2024-03-17T10:28:46;96002.31;;;13.95;57.43
84590;BME280;76270;48.816;8.740;2024-03-17T10:31:00;95993.63;;;14.52;55.73
84590;BME280;76270;48.816;8.740;2024-03-17T10:33:01;95996.59;;;14.49;55.73
84590;BME280;76270;48.816;8.740;2024-03-17T10:35:02;95997.56;;;14.58;55.29
84590;BME280;76270;48.816;8.740;2024-03-17T10:37:08;96005.47;;;14.98;54.77
84590;BME280;76270;48.816;8.740;2024-03-17T10:39:26;95996.91;;;14.94;55.27
84590;BME280;76270;48.816;8.740;2024-03-17T10:41:33;95997.03;;;14.93;54.73
84590;BME280;76270;48.816;8.740;2024-03-17T10:43:34;95993.53;;;15.02;54.90
84590;BME280;76270;48.816;8.740;2024-03-17T10:45:36;96002.81;;;14.69;55.52
84590;BME280;76270;48.816;8.740;2024-03-17T10:47:42;95997.91;;;14.83;55.15